Tiempo atmosférico en la estación meteorológica de Arganda Del Rey, Madrid (533 m.)



Fecha
DESCASC
Temp. máxima en grados centígrados (hora)
DESCASC
Temp. mínima en grados centígrados (hora)
DESCASC
Temp. media en grados centígrados
DESCASC
Racha de viento máxima en m/sg (hora)
DESCASC
Velocidad máxima media en intervalos de 10 minutos(hora)
DESCASC
Precipitaciones diarias en mm
DESCASC
Precipitaciones de 00:00 a 06:00 en mm
DESCASC
Precipitaciones de 06:00 a 12:00 en mm
DESCASC
Precipitaciones de 12:00 a 18:00 en mm
DESCASC
Precipitaciones de 18:00 a 24:00 en mm
DESCASC
20-06-2018 35.8 (18:20) 19.8 (07:30) 27.8 5.83 (13:30) 3.33 (18:50) 0 0 0 0 0
19-06-2018 35.5 (19:00) 16.1 (07:20) 25.8 6.67 (12:50) 3.89 (21:30) 0 0 0 0 0
18-06-2018 32.9 (16:40) 14 (06:40) 23.5 9.44 (15:00) 5.56 (00:30) 0 0 0 0 0
17-06-2018 33.9 (18:30) 15.6 (07:20) 24.8 8.89 (21:00) 5.83 (20:10) 0 0 0 0 0
16-06-2018 33.6 (19:00) 17.3 (07:00) 25.4 9.17 (23:10) 5.28 (23:10) 0 0 0 0 0
15-06-2018 33.1 (19:00) 11.8 (06:10) 22.4 7.5 (23:00) 4.72 (23:20) 0 0 0 0 0
14-06-2018 29.8 (19:00) 10.3 (00:00) 20 8.61 (00:10) 5.56 (00:20) 0 0 0 0 0
13-06-2018 27.9 (18:50) 11.2 (07:10) 19.5 10.56 (21:10) 5.83 (21:10) 0 0 0 0 0
12-06-2018 27.2 (18:20) 11.6 (07:20) 19.4 11.39 (19:10) 6.39 (19:30) 0 0 0 0 0
11-06-2018 21.6 (14:30) 12 (06:50) 16.8 7.5 (10:50) 5.28 (11:00) 0 0 0 0 0
10-06-2018 19.8 (20:10) 9.3 (00:00) 14.5 8.61 (20:50) 5.56 (20:30) 1 0 0 0.8 0.2
09-06-2018 22.4 (15:20) 11.7 (00:00) 17 9.17 (17:00) 6.11 (18:00) 0 0 0 0 0
08-06-2018 19.3 (12:30) 15.3 (00:00) 17.3 8.61 (13:00) 5.28 (13:00) 4.2 0 2.4 1.6 0.2
07-06-2018 24.9 (16:50) 10.4 (00:00) 17.6 9.44 (19:00) 5.83 (19:00) 0 0 0 0 0
06-06-2018 21.8 (20:10) 11.3 (00:00) 16.5 8.89 (15:50) 5.56 (15:50) 3.2 2.2 1 0 0
05-06-2018 20.9 (18:10) 11.6 (00:00) 16.3 8.89 (20:10) 5.28 (18:40) 0 0 0 0 0
04-06-2018 20.5 (17:00) 11.5 (00:00) 16 10.83 (19:10) 7.22 (19:50) 0 0 0 0 0
03-06-2018 24.2 (17:30) 10.4 (00:00) 17.3 10.83 (19:20) 7.22 (19:20) 0 0 0 0 0
02-06-2018 24.9 (17:20) 13.2 (00:00) 19 18.89 (17:50) 11.39 (18:00) 7.6 0.6 0.6 0 6.4
01-06-2018 26.4 (18:50) 12.1 (00:00) 19.3 15.83 (23:10) 6.67 (23:10) 5.2 0 0 0 5.2
31-05-2018 24.3 (18:50) 12.3 (07:30) 18.3 7.22 (15:00) 4.44 (19:10) 0 0 0 0 0
30-05-2018 19.9 (19:00) 12 (00:00) 15.9 7.78 (13:20) 4.17 (13:20) 0.6 0 0 0.4 0.2
29-05-2018 22.1 (14:10) 13.4 (00:00) 17.8 13.33 (14:30) 8.89 (14:20) 4.2 0.2 0 3.8 0.2
28-05-2018 22.3 (16:50) 14.7 (00:00) 18.5 8.61 (17:10) 5.83 (17:10) 5.6 0.4 5 0.2 0
27-05-2018 26 (16:40) 11.3 (00:00) 18.7 11.39 (19:20) 6.67 (20:10) 0 0 0 0 0
26-05-2018 23.1 (17:30) 12.8 (00:00) 18 6.11 (15:00) 3.33 (16:40) 0 0 0 0 0
25-05-2018 21.4 (18:40) 13.8 (00:00) 17.6 10.83 (03:10) 5.83 (03:10) 13.6 4.2 9 0.2 0.2
24-05-2018 28.8 (17:50) 13.8 (00:00) 21.3 14.72 (19:30) 9.17 (19:30) 0 0 0 0 0
23-05-2018 27.9 (18:50) 13.8 (00:00) 20.8 13.33 (20:10) 8.06 (20:10) 0.4 0 0 0 0.4
22-05-2018 24.4 (15:10) 11.9 (00:00) 18.1 9.44 (16:20) 5.28 (16:20) 4.4 4.2 0.2 0 0

Gráficas

Temp. máximas Temp. mínimas Temp. medias Precipitaciones Rachas de viento máximas Velocidades máximas media en intervalos de 10 minutos

Datos horarios

Fecha y hora oficial Temperatura (ºC) Velocidad del viento (km/h) Dirección del viento Racha (km/h) Dirección de racha Precipitación (mm) Presión (hPa) Tendencia (hPa) Humedad (%)
2018-06-20 23:00:00 26.8 0 Calma 5 Nordeste 0 -- -- 46
2018-06-20 22:00:00 29.9 4 Nordeste 7 Nordeste 0 -- -- 36
2018-06-20 21:00:00 34 2 Oeste 8 Oeste 0 -- -- 29
2018-06-20 20:00:00 34.3 5 Sudoeste 12 Sudeste 0 -- -- 27
2018-06-20 19:00:00 33.7 7 Este 21 Este 0 -- -- 28
2018-06-20 18:00:00 35.3 5 Sudeste 19 Este 0 -- -- 26
2018-06-20 17:00:00 34.9 6 Sudeste 20 Este 0 -- -- 27
2018-06-20 16:00:00 34.2 8 Sur 19 Sudeste 0 -- -- 29
2018-06-20 15:00:00 33.1 9 Nordeste 19 Este 0 -- -- 30
2018-06-20 14:00:00 32.1 7 Sudeste 21 Nordeste 0 -- -- 32
2018-06-20 13:00:00 30.6 7 Sur 16 Este 0 -- -- 35
2018-06-20 12:00:00 28.9 9 Sudeste 21 Sudoeste 0 -- -- 39
2018-06-20 11:00:00 27.1 8 Este 18 Este 0 -- -- 42
2018-06-20 10:00:00 24.9 6 Nordeste 16 Nordeste 0 -- -- 51
2018-06-20 09:00:00 22.8 8 Norte 16 Nordeste 0 -- -- 55
2018-06-20 08:00:00 20.7 3 Nordeste 17 Nordeste 0 -- -- 59
2018-06-20 07:00:00 19.9 8 Nordeste 15 Nordeste 0 -- -- 59
2018-06-20 06:00:00 20.3 6 Nordeste 15 Nordeste 0 -- -- 58
2018-06-20 05:00:00 20.9 6 Nordeste 15 Nordeste 0 -- -- 55
2018-06-20 04:00:00 22.1 7 Nordeste 18 Nordeste 0 -- -- 52
2018-06-20 03:00:00 22.9 3 Norte 14 Sur 0 -- -- 49
2018-06-20 02:00:00 24.3 6 Sur 15 Sudoeste 0 -- -- 46
2018-06-20 01:00:00 24.4 4 Sudeste 12 Oeste 0 -- -- 43
2018-06-20 00:00:00 25.1 7 Oeste 18 Este 0 -- -- 41
2018-06-19 23:00:00 27.6 10 Este 20 Este 0 -- -- 35
2018-06-19 22:00:00 29.5 12 Este 22 Sudeste 0 -- -- 32
2018-06-19 21:00:00 32.7 10 Sudeste 19 Sudeste 0 -- -- 31
2018-06-19 20:00:00 34.5 4 Nordeste 17 Sur 0 -- -- 29
2018-06-19 19:00:00 35.5 7 Sudeste 16 Sur 0 -- -- 29
2018-06-19 18:00:00 35 8 Sudoeste 22 Sudeste 0 -- -- 27
2018-06-19 17:00:00 34.7 8 Sudeste 22 Sur 0 -- -- 30
2018-06-19 16:00:00 33.7 12 Sudeste 22 Sudoeste 0 -- -- 31
2018-06-19 15:00:00 32.6 13 Este 23 Nordeste 0 -- -- 33
2018-06-19 14:00:00 30.9 6 Nordeste 18 Sudeste 0 -- -- 34
2018-06-19 13:00:00 29.6 6 Sur 24 Este 0 -- -- 36
2018-06-19 12:00:00 27.8 10 Este 18 Este 0 -- -- 38
2018-06-19 11:00:00 25.5 8 Nordeste 19 Norte 0 -- -- 44
2018-06-19 10:00:00 23 8 Norte 16 Norte 0 -- -- 52
2018-06-19 09:00:00 19.9 4 Norte 13 Nordeste 0 -- -- 59
2018-06-19 08:00:00 17.4 7 Nordeste 15 Norte 0 -- -- 65
2018-06-19 07:00:00 16.2 8 Nordeste 19 Nordeste 0 -- -- 69
2018-06-19 06:00:00 16.9 13 Nordeste 23 Nordeste 0 -- -- 66
2018-06-19 05:00:00 17.7 7 Norte 15 Nordeste 0 -- -- 62
2018-06-19 04:00:00 18.7 9 Nordeste 18 Nordeste 0 -- -- 59
2018-06-19 03:00:00 19.7 10 Nordeste 22 Nordeste 0 -- -- 54
2018-06-19 02:00:00 20.5 7 Nordeste 15 Norte 0 -- -- 50
2018-06-19 01:00:00 21.8 8 Nordeste 21 Nordeste 0 -- -- 47
2018-06-19 00:00:00 23.5 10 Nordeste 17 Norte 0 -- -- 41
2018-06-18 23:00:00 24.6 4 Nordeste 12 Nordeste 0 -- -- 40
2018-06-18 22:00:00 27.4 5 Norte 21 Nordeste 0 -- -- 36
2018-06-18 21:00:00 30.1 12 Nordeste 29 Este 0 -- -- 31
2018-06-18 20:00:00 31.6 13 Nordeste 27 Este 0 -- -- 27
2018-06-18 19:00:00 32.9 15 Nordeste 26 Nordeste 0 -- -- 27
2018-06-18 18:00:00 32.6 12 Nordeste 32 Nordeste 0 -- -- 27
2018-06-18 17:00:00 32.5 17 Nordeste 32 Nordeste 0 -- -- 23
2018-06-18 16:00:00 32.4 16 Nordeste 33 Norte 0 -- -- 24
2018-06-18 15:00:00 31.9 18 Nordeste 34 Nordeste 0 -- -- 23
2018-06-18 14:00:00 31.6 13 Norte 30 Nordeste 0 -- -- 27
2018-06-18 13:00:00 29.9 15 Nordeste 30 Norte 0 -- -- 31
2018-06-18 12:00:00 28.3 15 Nordeste 27 Norte 0 -- -- 34
2018-06-18 11:00:00 26.8 13 Nordeste 23 Nordeste 0 -- -- 38
2018-06-18 10:00:00 23.5 8 Nordeste 14 Nordeste 0 -- -- 46
2018-06-18 09:00:00 20.6 7 Nordeste 15 Nordeste 0 -- -- 52
2018-06-18 08:00:00 16.6 7 Nordeste 18 Nordeste 0 -- -- 62
2018-06-18 07:00:00 14.4 2 Nordeste 5 Nordeste 0 -- -- 66
2018-06-18 06:00:00 15.4 0 Calma 9 Sudeste 0 -- -- 62
2018-06-18 05:00:00 15.3 2 Sudoeste 5 Sudeste 0 -- -- 61
2018-06-18 04:00:00 17.3 3 Sudoeste 12 Nordeste 0 -- -- 56
2018-06-18 03:00:00 19 6 Este 13 Nordeste 0 -- -- 52
2018-06-18 02:00:00 21.6 6 Nordeste 28 Norte 0 -- -- 45
2018-06-18 01:00:00 23.3 15 Nordeste 33 Nordeste 0 -- -- 40
2018-06-18 00:00:00 24.2 14 Nordeste 29 Nordeste 0 -- -- 37
2018-06-17 23:00:00 24.5 12 Nordeste 28 Norte 0 -- -- 33
2018-06-17 22:00:00 26.8 13 Norte 27 Norte 0 -- -- 26
2018-06-17 21:00:00 29.2 19 Norte 32 Nordeste 0 -- -- 21
2018-06-17 20:00:00 31.2 18 Norte 30 Norte 0 -- -- 28
2018-06-17 19:00:00 33.7 12 Norte 21 Norte 0 -- -- 28
2018-06-17 18:00:00 33.3 8 Norte 20 Norte 0 -- -- 28
2018-06-17 17:00:00 32.4 5 Norte 21 Norte 0 -- -- 28
2018-06-17 16:00:00 32.3 8 Nordeste 27 Norte 0 -- -- 27
2018-06-17 15:00:00 32.2 7 Norte 20 Noroeste 0 -- -- 27
2018-06-17 14:00:00 31.4 10 Norte 18 Norte 0 -- -- 28
2018-06-17 13:00:00 29.2 6 Noroeste 15 Oeste 0 -- -- 32
2018-06-17 12:00:00 27.2 4 Oeste 10 Oeste 0 -- -- 37
2018-06-17 11:00:00 24.8 5 Nordeste 13 Nordeste 0 -- -- 36
2018-06-17 10:00:00 21.7 6 Norte 14 Nordeste 0 -- -- 41
2018-06-17 09:00:00 19.4 4 Norte 15 Norte 0 -- -- 48
2018-06-17 08:00:00 17.5 6 Norte 12 Norte 0 -- -- 51
2018-06-17 07:00:00 16.1 0 Calma 11 Norte 0 -- -- 58
2018-06-17 06:00:00 17.3 4 Nordeste 10 Norte 0 -- -- 51
2018-06-17 05:00:00 17.6 3 Nordeste 17 Nordeste 0 -- -- 53
2018-06-17 04:00:00 19.2 12 Nordeste 28 Norte 0 -- -- 50
2018-06-17 03:00:00 20 12 Nordeste 22 Nordeste 0 -- -- 51
2018-06-17 02:00:00 21 6 Nordeste 19 Nordeste 0 -- -- 43
2018-06-17 01:00:00 22.4 9 Nordeste 21 Norte 0 -- -- 36
2018-06-17 00:00:00 23.7 9 Nordeste 33 Nordeste 0 -- -- 32
2018-06-16 23:00:00 25 12 Nordeste 31 Norte 0 -- -- 28
2018-06-16 22:00:00 26.8 13 Norte 25 Norte 0 -- -- 30
2018-06-16 21:00:00 30.2 14 Norte 23 Norte 0 -- -- 30
2018-06-16 20:00:00 32.6 5 Noroeste 16 Nordeste 0 -- -- 25
2018-06-16 19:00:00 33.6 6 Nordeste 22 Este 0 -- -- 26
2018-06-16 18:00:00 32.6 11 Nordeste 22 Nordeste 0 -- -- 26
2018-06-16 17:00:00 32.7 8 Norte 21 Nordeste 0 -- -- 23
2018-06-16 16:00:00 32 11 Norte 22 Norte 0 -- -- 26
2018-06-16 15:00:00 32.1 10 Norte 23 Noroeste 0 -- -- 24
2018-06-16 14:00:00 30.8 9 Noroeste 21 Noroeste 0 -- -- 22
2018-06-16 13:00:00 29.7 12 Norte 21 Norte 0 -- -- 30
2018-06-16 12:00:00 27.8 9 Norte 20 Norte 0 -- -- 40
2018-06-16 11:00:00 24.8 4 Noroeste 10 Norte 0 -- -- 52
2018-06-16 10:00:00 22.6 3 Norte 9 Nordeste 0 -- -- 58
2018-06-16 09:00:00 20.7 4 Norte 12 Norte 0 -- -- 64
2018-06-16 08:00:00 18.4 6 Nordeste 13 Nordeste 0 -- -- 72
2018-06-16 07:00:00 17.3 6 Nordeste 15 Nordeste 0 -- -- 74
2018-06-16 06:00:00 17.7 5 Nordeste 18 Norte 0 -- -- 73
2018-06-16 05:00:00 18.1 10 Norte 20 Norte 0 -- -- 72
2018-06-16 04:00:00 19.3 6 Norte 24 Nordeste 0 -- -- 67
2018-06-16 03:00:00 20.3 12 Nordeste 22 Nordeste 0 -- -- 64
2018-06-16 02:00:00 21.4 12 Nordeste 22 Nordeste 0 -- -- 62
2018-06-16 01:00:00 22.7 15 Nordeste 24 Norte 0 -- -- 58
2018-06-16 00:00:00 24.2 12 Nordeste 27 Norte 0 -- -- 53
2018-06-15 23:00:00 25.6 15 Norte 27 Norte 0 -- -- 46
2018-06-15 22:00:00 27.1 15 Norte 26 Norte 0 -- -- 42
2018-06-15 21:00:00 29 5 Nordeste 11 Este 0 -- -- 34
2018-06-15 20:00:00 30.6 6 Nordeste 14 Norte 0 -- -- 31
2018-06-15 19:00:00 33.1 4 Norte 15 Oeste 0 -- -- 27
2018-06-15 18:00:00 32.1 5 Nordeste 17 Oeste 0 -- -- 27
2018-06-15 17:00:00 31.9 5 Sudoeste 17 Sudoeste 0 -- -- 28
2018-06-15 16:00:00 30.9 4 Oeste 18 Sur 0 -- -- 29
2018-06-15 15:00:00 29.5 5 Norte 18 Sudoeste 0 -- -- 29
2018-06-15 14:00:00 28.5 6 Oeste 17 Sudoeste 0 -- -- 29
2018-06-15 13:00:00 27.2 6 Noroeste 16 Noroeste 0 -- -- 32
2018-06-15 12:00:00 25.5 3 Nordeste 15 Sur 0 -- -- 35
2018-06-15 11:00:00 23.5 3 Sudeste 10 Sudeste 0 -- -- 40
2018-06-15 10:00:00 21.1 4 Este 10 Nordeste 0 -- -- 45
2018-06-15 09:00:00 18 7 Este 11 Este 0 -- -- 62
2018-06-15 08:00:00 14.6 3 Este 8 Este 0 -- -- 74
2018-06-15 07:00:00 12.4 6 Nordeste 13 Este 0 -- -- 77
2018-06-15 06:00:00 11.9 3 Nordeste 6 Nordeste 0 -- -- 77
2018-06-15 05:00:00 12.3 0 Calma 5 Noroeste 0 -- -- 75
2018-06-15 04:00:00 13.5 2 Este 5 Norte 0 -- -- 71
2018-06-15 03:00:00 16.3 3 Este 9 Este 0 -- -- 61
2018-06-15 02:00:00 16.4 2 Sudoeste 9 Nordeste 0 -- -- 63
2018-06-15 01:00:00 18.9 4 Nordeste 17 Norte 0 -- -- 51
2018-06-15 00:00:00 21 8 Nordeste 23 Norte 0 -- -- 45
2018-06-14 23:00:00 21.2 8 Nordeste 18 Norte 0 -- -- 44
2018-06-14 22:00:00 23.5 6 Norte 22 Norte 0 -- -- 37
2018-06-14 21:00:00 26.6 8 Norte 18 Norte 0 -- -- 33
2018-06-14 20:00:00 28.2 11 Norte 23 Norte 0 -- -- 28
2018-06-14 19:00:00 29.8 10 Norte 18 Norte 0 -- -- 26
2018-06-14 18:00:00 28.7 6 Norte 21 Norte 0 -- -- 29
2018-06-14 17:00:00 27.2 11 Nordeste 25 Este 0 -- -- 32
2018-06-14 16:00:00 27.1 8 Norte 22 Norte 0 -- -- 32
2018-06-14 15:00:00 25.8 8 Norte 19 Nordeste 0 -- -- 34
2018-06-14 14:00:00 24.8 7 Norte 20 Norte 0 -- -- 38
2018-06-14 13:00:00 22.8 6 Sudoeste 16 Oeste 0 -- -- 42
2018-06-14 12:00:00 21.5 8 Noroeste 15 Norte 0 -- -- 45
2018-06-14 11:00:00 19.9 4 Nordeste 13 Norte 0 -- -- 50
2018-06-14 10:00:00 17.7 4 Sudeste 9 Norte 0 -- -- 57
2018-06-14 09:00:00 14.5 4 Norte 6 Norte 0 -- -- 67
2018-06-14 08:00:00 12.1 0 Calma 6 Nordeste 0 -- -- 77
2018-06-14 07:00:00 10.5 3 Norte 5 Noroeste 0 -- -- 80
2018-06-14 06:00:00 10.8 3 Nordeste 6 Noroeste 0 -- -- 80
2018-06-14 05:00:00 11.6 3 Oeste 6 Sudoeste 0 -- -- 76
2018-06-14 04:00:00 13.2 6 Este 12 Nordeste 0 -- -- 74
2018-06-14 03:00:00 13.9 2 Este 6 Este 0 -- -- 70
2018-06-14 02:00:00 15.2 2 Sur 15 Este 0 -- -- 66
2018-06-14 01:00:00 17.7 12 Nordeste 31 Nordeste 0 -- -- 57
2018-06-14 00:00:00 18.4 19 Nordeste 29 Norte 0 -- -- 52
2018-06-13 23:00:00 19.5 17 Nordeste 32 Norte 0 -- -- 46
2018-06-13 22:00:00 20.8 20 Norte 38 Norte 0 -- -- 43
2018-06-13 21:00:00 23.3 18 Norte 31 Norte 0 -- -- 38
2018-06-13 20:00:00 26 12 Norte 26 Norte 0 -- -- 34
2018-06-13 19:00:00 27.7 9 Norte 23 Norte 0 -- -- 29
2018-06-13 18:00:00 27.1 14 Norte 26 Norte 0 -- -- 32
2018-06-13 17:00:00 26.6 9 Nordeste 21 Norte 0 -- -- 33
2018-06-13 16:00:00 26 8 Norte 23 Noroeste 0 -- -- 35
2018-06-13 15:00:00 26 8 Norte 25 Norte 0 -- -- 36
2018-06-13 14:00:00 25.2 7 Norte 26 Oeste 0 -- -- 38
2018-06-13 13:00:00 24 9 Noroeste 23 Noroeste 0 -- -- 40
2018-06-13 12:00:00 22.3 8 Norte 19 Noroeste 0 -- -- 45
2018-06-13 11:00:00 20.3 5 Nordeste 14 Norte 0 -- -- 50
2018-06-13 10:00:00 17.8 8 Norte 17 Nordeste 0 -- -- 60
2018-06-13 09:00:00 15.7 7 Nordeste 11 Nordeste 0 -- -- 69
2018-06-13 08:00:00 12.7 3 Nordeste 7 Nordeste 0 -- -- 81
2018-06-13 07:00:00 11.3 0 Calma 6 Nordeste 0 -- -- 84
2018-06-13 06:00:00 12 2 Este 8 Este 0 -- -- 84
2018-06-13 05:00:00 12.7 3 Nordeste 9 Este 0 -- -- 84
2018-06-13 04:00:00 13.1 3 Este 8 Este 0 -- -- 83
2018-06-13 03:00:00 12.9 4 Sur 8 Nordeste 0 -- -- 82
2018-06-13 02:00:00 14.6 3 Nordeste 9 Nordeste 0 -- -- 77
2018-06-13 01:00:00 15.3 4 Nordeste 6 Nordeste 0 -- -- 76
2018-06-13 00:00:00 16.5 2 Este 5 Nordeste 0 -- -- 70
2018-06-12 23:00:00 17.5 2 Nordeste 6 Norte 0 -- -- 66
2018-06-12 22:00:00 19.6 4 Norte 15 Nordeste 0 -- -- 57
2018-06-12 21:00:00 21.9 14 Nordeste 25 Nordeste 0 -- -- 49
2018-06-12 20:00:00 21.7 18 Nordeste 41 Norte 0 -- -- 51
2018-06-12 19:00:00 26.5 9 Noroeste 19 Noroeste 0 -- -- 40
2018-06-12 18:00:00 27.1 7 Noroeste 18 Norte 0 -- -- 37
2018-06-12 17:00:00 25.3 8 Nordeste 24 Este 0 -- -- 42
2018-06-12 16:00:00 24.2 13 Norte 24 Norte 0 -- -- 47
2018-06-12 15:00:00 23.4 0 Calma 18 Sudoeste 0 -- -- 45
2018-06-12 14:00:00 24.1 6 Sudoeste 17 Oeste 0 -- -- 45
2018-06-12 13:00:00 23.9 5 Norte 17 Sudoeste 0 -- -- 46
2018-06-12 12:00:00 22.1 6 Norte 17 Este 0 -- -- 52
2018-06-12 11:00:00 19.9 3 Este 11 Sudoeste 0 -- -- 60
2018-06-12 10:00:00 17.9 4 Sur 8 Sudoeste 0 -- -- 68
2018-06-12 09:00:00 15.5 3 Sudoeste 7 Este 0 -- -- 83
2018-06-12 08:00:00 13.4 3 Nordeste 5 Nordeste 0 -- -- 90
2018-06-12 07:00:00 11.8 4 Este 10 Este 0 -- -- 91
2018-06-12 06:00:00 12.6 4 Noroeste 7 Sudeste 0 -- -- 89
2018-06-12 05:00:00 13.8 2 Nordeste 6 Nordeste 0 -- -- 86
2018-06-12 04:00:00 14.9 0 Calma 4 Nordeste 0 -- -- 83
2018-06-12 03:00:00 15.3 3 Nordeste 6 Norte 0 -- -- 82
2018-06-12 02:00:00 15.9 3 Este 6 Nordeste 0 -- -- 78
2018-06-12 01:00:00 16.7 3 Sudeste 4 Sur 0 -- -- 77
2018-06-12 00:00:00 17.2 2 Este 15 Noroeste 0 -- -- 72
2018-06-11 23:00:00 17.9 7 Noroeste 22 Noroeste 0 -- -- 68
2018-06-11 22:00:00 18.4 13 Noroeste 24 Oeste 0 -- -- 60
2018-06-11 21:00:00 19.8 10 Oeste 25 Sudoeste 0 -- -- 55
2018-06-11 20:00:00 20.9 14 Oeste 27 Oeste 0 -- -- 49
2018-06-11 19:00:00 20.5 10 Sudoeste 23 Sur 0 -- -- 52
2018-06-11 18:00:00 20.3 16 Sur 26 Sur 0 -- -- 53
2018-06-11 17:00:00 20.6 12 Sudoeste 23 Sudoeste 0 -- -- 52
2018-06-11 16:00:00 20.6 16 Sudoeste 23 Oeste 0 -- -- 51
2018-06-11 15:00:00 20.2 15 Sur 26 Sur 0 -- -- 51
2018-06-11 14:00:00 20.5 17 Sudoeste 27 Sudoeste 0 -- -- 48
2018-06-11 13:00:00 19.9 14 Sur 22 Sur 0 -- -- 55
2018-06-11 12:00:00 18.7 14 Sudoeste 27 Sudoeste 0 -- -- 59
2018-06-11 11:00:00 16.5 19 Sudoeste 27 Oeste 0 -- -- 67
2018-06-11 10:00:00 14.3 11 Sudoeste 19 Sudoeste 0 -- -- 83
2018-06-11 09:00:00 13.4 10 Sudoeste 23 Sudoeste 0 -- -- 87
2018-06-11 08:00:00 13 7 Sudoeste 13 Sudoeste 0 -- -- 91
2018-06-11 07:00:00 12 8 Sudoeste 13 Sudoeste 0 -- -- 91
2018-06-11 06:00:00 12.5 5 Sur 19 Sudoeste 0 -- -- 91
2018-06-11 05:00:00 13.4 15 Sudoeste 23 Sudoeste 0 -- -- 89
2018-06-11 04:00:00 14.4 13 Sudoeste 22 Sudoeste 0 -- -- 87
2018-06-11 03:00:00 14.2 10 Sudoeste 18 Sudoeste 0 -- -- 87
2018-06-11 02:00:00 13.4 7 Sudoeste 13 Sur 0 -- -- 86
2018-06-11 01:00:00 13.4 4 Sudoeste 12 Sudoeste 0 -- -- 83
2018-06-11 00:00:00 14.5 8 Sur 19 Oeste 0 -- -- 78
2018-06-10 23:00:00 15.8 10 Sudoeste 22 Oeste 0 -- -- 73
2018-06-10 22:00:00 16.7 12 Oeste 27 Oeste 0 -- -- 66
2018-06-10 21:00:00 19.3 19 Oeste 31 Oeste 0 -- -- 57
2018-06-10 20:00:00 19.5 17 Sudoeste 27 Oeste 0.2 -- -- 59
2018-06-10 19:00:00 19 13 Sudoeste 27 Oeste 0 -- -- 60
2018-06-10 18:00:00 18.9 10 Sudoeste 19 Sudoeste 0 -- -- 63
2018-06-10 17:00:00 17.9 2 Sur 10 Este 0 -- -- 71
2018-06-10 16:00:00 15.6 3 Nordeste 15 Oeste 0.8 -- -- 83
2018-06-10 15:00:00 18.5 9 Sudeste 12 Sur 0 -- -- 62
2018-06-10 14:00:00 17.5 6 Sudoeste 9 Oeste 0 -- -- 65
2018-06-10 13:00:00 17.7 5 Noroeste 16 Sudoeste 0 -- -- 68
2018-06-10 12:00:00 17.9 8 Oeste 16 Oeste 0 -- -- 66
2018-06-10 11:00:00 16.3 4 Sudoeste 9 Oeste 0 -- -- 77
2018-06-10 10:00:00 14.3 0 Calma 6 Oeste 0 -- -- 84
2018-06-10 09:00:00 13.6 2 Noroeste 7 Este 0 -- -- 85
2018-06-10 08:00:00 11.5 0 Calma 4 Este 0 -- -- 94
2018-06-10 07:00:00 9.3 0 Calma 6 Este 0 -- -- 91
2018-06-10 06:00:00 10 4 Este 9 Este 0 -- -- 92
2018-06-10 05:00:00 9.5 3 Nordeste 7 Nordeste 0 -- -- 91
2018-06-10 04:00:00 9.9 0 Calma 5 Nordeste 0 -- -- 89
2018-06-10 03:00:00 10.6 2 Nordeste 6 Nordeste 0 -- -- 87
2018-06-10 02:00:00 11.1 4 Nordeste 8 Nordeste 0 -- -- 87
2018-06-10 01:00:00 11.6 0 Calma 4 Este 0 -- -- 84
2018-06-10 00:00:00 12.4 3 Sudeste 4 Sudeste 0 -- -- 81
2018-06-09 23:00:00 13.5 0 Calma 10 Sur 0 -- -- 76
2018-06-09 22:00:00 14.6 8 Sudoeste 13 Sudoeste 0 -- -- 73
2018-06-09 21:00:00 17.4 10 Sudoeste 22 Oeste 0 -- -- 61
2018-06-09 20:00:00 17.9 19 Oeste 33 Oeste 0 -- -- 59
2018-06-09 19:00:00 19.4 17 Oeste 32 Oeste 0 -- -- 55
2018-06-09 18:00:00 19.1 22 Oeste 31 Oeste 0 -- -- 54
2018-06-09 17:00:00 21.2 19 Oeste 33 Oeste 0 -- -- 53
2018-06-09 16:00:00 21.2 17 Oeste 28 Sur 0 -- -- 56
2018-06-09 15:00:00 21.9 13 Sur 30 Sur 0 -- -- 49
2018-06-09 14:00:00 21.5 17 Sudoeste 30 Sudoeste 0 -- -- 49
2018-06-09 13:00:00 20.3 11 Sur 22 Sur 0 -- -- 57
2018-06-09 12:00:00 18.4 14 Sur 23 Sudoeste 0 -- -- 71
2018-06-09 11:00:00 16.7 5 Sudeste 10 Sudoeste 0 -- -- 79
2018-06-09 10:00:00 15.3 8 Oeste 12 Sudoeste 0 -- -- 86
2018-06-09 09:00:00 14 8 Sudoeste 11 Sudoeste 0 -- -- 90
2018-06-09 08:00:00 13.3 0 Calma 4 Sudeste 0 -- -- 94
2018-06-09 07:00:00 11.8 2 Sur 6 Sudoeste 0 -- -- 94
2018-06-09 06:00:00 11.9 5 Sudoeste 8 Sudoeste 0 -- -- 94
2018-06-09 05:00:00 12.2 4 Sudoeste 5 Sudoeste 0 -- -- 92
2018-06-09 04:00:00 13.2 2 Sudeste 3 Noroeste 0 -- -- 91
2018-06-09 03:00:00 14.4 0 Calma 10 Sudoeste 0 -- -- 90
2018-06-09 02:00:00 15.6 5 Sur 10 Sudeste 0 -- -- 87
2018-06-09 01:00:00 16.2 0 Calma 11 Sudeste 0 -- -- 88
2018-06-09 00:00:00 16.4 0 Calma 8 Sudeste 0 -- -- 87
2018-06-08 23:00:00 16.3 5 Sudeste 7 Sur 0 -- -- 89
2018-06-08 22:00:00 16.6 4 Sur 22 Sur 0 -- -- 87
2018-06-08 21:00:00 17.5 9 Sur 22 Sur 0 -- -- 86
2018-06-08 20:00:00 17.6 13 Sur 24 Sur 0.2 -- -- 86
2018-06-08 19:00:00 18.6 13 Sur 24 Sur 0 -- -- 78
2018-06-08 18:00:00 19.1 14 Sudoeste 21 Sur 0.2 -- -- 77
2018-06-08 17:00:00 17.8 9 Sudoeste 23 Sudoeste 0.6 -- -- 86
2018-06-08 16:00:00 18.6 13 Sudoeste 20 Sudoeste 0.4 -- -- 82
2018-06-08 15:00:00 18.5 4 Sur 8 Oeste 0 -- -- 83
2018-06-08 14:00:00 18.6 3 Sudoeste 15 Sur 0 -- -- 80
2018-06-08 13:00:00 18.3 19 Sur 31 Sur 0.4 -- -- 78
2018-06-08 12:00:00 18.8 11 Sudeste 18 Este 0 -- -- 79
2018-06-08 11:00:00 17.6 7 Sudeste 14 Sudeste 0.2 -- -- 84
2018-06-08 10:00:00 16 5 Este 9 Este 0.6 -- -- 88
2018-06-08 09:00:00 15.4 5 Sudoeste 13 Sudoeste 0.4 -- -- 89
2018-06-08 08:00:00 15.5 3 Este 9 Sudoeste 0.4 -- -- 88
2018-06-08 07:00:00 15.4 4 Sudoeste 11 Sudoeste 0.8 -- -- 86
2018-06-08 06:00:00 15.9 2 Sudoeste 4 Sur 0 -- -- 80
2018-06-08 05:00:00 16 0 Calma 5 Oeste 0 -- -- 80
2018-06-08 04:00:00 16.1 0 Calma 4 Sur 0 -- -- 78
2018-06-08 03:00:00 16.4 0 Calma 8 Sur 0 -- -- 73
2018-06-08 02:00:00 16.8 4 Sudoeste 13 Sudoeste 0 -- -- 72
2018-06-08 01:00:00 17 4 Sudoeste 9 Sudoeste 0 -- -- 73
2018-06-08 00:00:00 17.8 6 Sur 10 Sudoeste 0 -- -- 69
2018-06-07 23:00:00 18.6 6 Sur 17 Sudoeste 0 -- -- 64
2018-06-07 22:00:00 19.6 10 Sudoeste 22 Sudoeste 0 -- -- 61
2018-06-07 21:00:00 21 13 Oeste 30 Oeste 0 -- -- 53
2018-06-07 20:00:00 22.4 15 Oeste 29 Oeste 0 -- -- 52
2018-06-07 19:00:00 22.8 21 Oeste 34 Oeste 0 -- -- 51
2018-06-07 18:00:00 24.1 18 Oeste 29 Sudoeste 0 -- -- 43
2018-06-07 17:00:00 24.6 17 Sudoeste 25 Sudoeste 0 -- -- 40
2018-06-07 16:00:00 24.3 18 Oeste 29 Oeste 0 -- -- 42
2018-06-07 15:00:00 23.8 14 Sudoeste 29 Sur 0 -- -- 43
2018-06-07 14:00:00 24.1 12 Oeste 26 Sudoeste 0 -- -- 41
2018-06-07 13:00:00 22.5 9 Sur 21 Sur 0 -- -- 50
2018-06-07 12:00:00 20.7 7 Sudoeste 15 Sudoeste 0 -- -- 53
2018-06-07 11:00:00 19.1 4 Sur 10 Oeste 0 -- -- 60
2018-06-07 10:00:00 17.5 2 Este 8 Sur 0 -- -- 69
2018-06-07 09:00:00 15.4 0 Calma 9 Nordeste 0 -- -- 78
2018-06-07 08:00:00 12.3 7 Este 11 Este 0 -- -- 89
2018-06-07 07:00:00 10.4 2 Norte 6 Nordeste 0 -- -- 90
2018-06-07 06:00:00 11 3 Este 8 Nordeste 0 -- -- 90
2018-06-07 05:00:00 11.5 2 Oeste 9 Nordeste 0 -- -- 88
2018-06-07 04:00:00 12.1 5 Nordeste 8 Nordeste 0 -- -- 88
2018-06-07 03:00:00 13.2 4 Este 12 Oeste 0 -- -- 86
2018-06-07 02:00:00 14 4 Nordeste 9 Nordeste 0 -- -- 80
2018-06-07 01:00:00 15.4 0 Calma 5 Este 0 -- -- 78
2018-06-07 00:00:00 16 3 Nordeste 4 Este 0 -- -- 73
2018-06-06 23:00:00 16.6 0 Calma 9 Norte 0 -- -- 69
2018-06-06 22:00:00 17.5 4 Nordeste 13 Nordeste 0 -- -- 64
2018-06-06 21:00:00 18.2 8 Este 25 Nordeste 0 -- -- 60
2018-06-06 20:00:00 21.6 3 Sudeste 9 Sudoeste 0 -- -- 44
2018-06-06 19:00:00 21.6 4 Sudeste 9 Sudoeste 0 -- -- 45
2018-06-06 18:00:00 21.3 4 Norte 15 Norte 0 -- -- 47
2018-06-06 17:00:00 19.8 7 Noroeste 24 Norte 0 -- -- 53
2018-06-06 16:00:00 17.3 17 Nordeste 32 Nordeste 0 -- -- 63
2018-06-06 15:00:00 20.2 9 Norte 23 Norte 0 -- -- 51
2018-06-06 14:00:00 19 8 Norte 17 Este 0 -- -- 60
2018-06-06 13:00:00 16.6 5 Nordeste 15 Norte 0 -- -- 65
2018-06-06 12:00:00 14.9 10 Nordeste 19 Nordeste 0 -- -- 77
2018-06-06 11:00:00 16.7 3 Nordeste 12 Sur 0 -- -- 71
2018-06-06 10:00:00 14.3 4 Sudoeste 8 Sudoeste 0 -- -- 82
2018-06-06 09:00:00 12.4 2 Sudoeste 5 Sudoeste 0 -- -- 91
2018-06-06 08:00:00 11.3 4 Sur 6 Sur 0 -- -- 92
2018-06-06 07:00:00 11.7 2 Sur 6 Sudoeste 1 -- -- 91
2018-06-06 06:00:00 11.8 3 Sur 8 Sur 0.8 -- -- 91
2018-06-06 05:00:00 12.3 5 Sudoeste 17 Sudoeste 0.4 -- -- 86
2018-06-06 04:00:00 12.9 2 Sudoeste 4 Sur 0 -- -- 88
2018-06-06 03:00:00 12.8 3 Sudeste 12 Sur 0.2 -- -- 89
2018-06-06 02:00:00 12.9 8 Sudoeste 13 Sudoeste 0.2 -- -- 88
2018-06-06 01:00:00 13.6 7 Sudoeste 13 Sudoeste 0.6 -- -- 83
2018-06-06 00:00:00 14.4 9 Oeste 16 Oeste 0 -- -- 75
2018-06-05 23:00:00 15.3 3 Noroeste 12 Oeste 0 -- -- 71
2018-06-05 22:00:00 16.2 5 Oeste 18 Oeste 0 -- -- 61
2018-06-05 21:00:00 16.9 9 Oeste 32 Oeste 0 -- -- 54
2018-06-05 20:00:00 18.6 15 Oeste 28 Oeste 0 -- -- 49
2018-06-05 19:00:00 19.9 15 Oeste 27 Oeste 0 -- -- 44
2018-06-05 18:00:00 20 10 Oeste 28 Oeste 0 -- -- 44
2018-06-05 17:00:00 19.3 11 Oeste 24 Oeste 0 -- -- 45
2018-06-05 16:00:00 19.8 12 Sudoeste 25 Sudoeste 0 -- -- 41
2018-06-05 15:00:00 19.1 10 Sudoeste 21 Sur 0 -- -- 46
2018-06-05 14:00:00 18.3 13 Sudoeste 21 Oeste 0 -- -- 47
2018-06-05 13:00:00 18 10 Oeste 22 Sudoeste 0 -- -- 50
2018-06-05 12:00:00 18 14 Sudoeste 24 Oeste 0 -- -- 51
2018-06-05 11:00:00 15.8 6 Oeste 17 Oeste 0 -- -- 63
2018-06-05 10:00:00 15 10 Oeste 17 Sudoeste 0 -- -- 69
2018-06-05 09:00:00 13.2 8 Sudoeste 15 Sudoeste 0 -- -- 81
2018-06-05 08:00:00 12.2 8 Sudoeste 17 Sudoeste 0 -- -- 84
2018-06-05 07:00:00 11.8 9 Sudoeste 18 Sudoeste 0 -- -- 84
2018-06-05 06:00:00 12.1 12 Sudoeste 19 Sudoeste 0 -- -- 80
2018-06-05 05:00:00 13.1 7 Sudoeste 17 Sudoeste 0 -- -- 77
2018-06-05 04:00:00 13.3 9 Sudoeste 17 Sudoeste 0 -- -- 76
2018-06-05 03:00:00 13.9 9 Sudoeste 29 Oeste 0 -- -- 75
2018-06-05 02:00:00 14.5 15 Sudoeste 23 Sudoeste 0 -- -- 73
2018-06-05 01:00:00 15.2 16 Sudoeste 27 Sudoeste 0 -- -- 69
2018-06-05 00:00:00 15.5 15 Sudoeste 26 Sudoeste 0 -- -- 69
2018-06-04 23:00:00 16 14 Sudoeste 24 Sudoeste 0 -- -- 65
2018-06-04 22:00:00 16.6 15 Sudoeste 27 Oeste 0 -- -- 61
2018-06-04 21:00:00 17.8 16 Sudoeste 35 Sudoeste 0 -- -- 56
2018-06-04 20:00:00 18.7 23 Sudoeste 39 Sudoeste 0 -- -- 53
2018-06-04 19:00:00 19.3 21 Sudoeste 36 Sudoeste 0 -- -- 53
2018-06-04 18:00:00 19.7 25 Oeste 37 Oeste 0 -- -- 52
2018-06-04 17:00:00 20.5 21 Sudoeste 33 Sudoeste 0 -- -- 50
2018-06-04 16:00:00 19.9 21 Sudoeste 33 Sudoeste 0 -- -- 53
2018-06-04 15:00:00 18.8 18 Sudoeste 33 Sudoeste 0 -- -- 57
2018-06-04 14:00:00 18.7 21 Sudoeste 34 Sudoeste 0 -- -- 59
2018-06-04 13:00:00 17.5 17 Sur 31 Sur 0 -- -- 63
2018-06-04 12:00:00 15.9 17 Sudoeste 27 Sur 0 -- -- 67
2018-06-04 11:00:00 15.8 18 Sudoeste 26 Sur 0 -- -- 69
2018-06-04 10:00:00 14.4 17 Sur 24 Sur 0 -- -- 75
2018-06-04 09:00:00 13.1 14 Sudoeste 20 Sudoeste 0 -- -- 80
2018-06-04 08:00:00 12.3 10 Sudoeste 18 Sudoeste 0 -- -- 83
2018-06-04 07:00:00 11.5 2 Sur 10 Sur 0 -- -- 84
2018-06-04 06:00:00 11.8 8 Sur 12 Sudoeste 0 -- -- 83
2018-06-04 05:00:00 12.8 6 Sudoeste 16 Sur 0 -- -- 79
2018-06-04 04:00:00 13.3 9 Sudoeste 15 Sudoeste 0 -- -- 79
2018-06-04 03:00:00 14.1 8 Sudoeste 16 Sur 0 -- -- 77
2018-06-04 02:00:00 14.7 10 Sudoeste 17 Sudoeste 0 -- -- 77
2018-06-04 01:00:00 15.4 8 Sur 14 Sur 0 -- -- 76
2018-06-04 00:00:00 16.7 4 Sudoeste 15 Sur 0 -- -- 70
2018-06-03 23:00:00 17.8 11 Sudoeste 21 Sudoeste 0 -- -- 67
2018-06-03 22:00:00 19.4 15 Sudoeste 28 Oeste 0 -- -- 61
2018-06-03 21:00:00 21.4 18 Oeste 34 Sudoeste 0 -- -- 54
2018-06-03 20:00:00 23.4 20 Oeste 39 Sudoeste 0 -- -- 48
2018-06-03 19:00:00 23.1 19 Oeste 33 Sudoeste 0 -- -- 51
2018-06-03 18:00:00 24.1 19 Oeste 31 Oeste 0 -- -- 50
2018-06-03 17:00:00 24.1 16 Oeste 30 Sudoeste 0 -- -- 51
2018-06-03 16:00:00 24.1 17 Sudoeste 30 Sudoeste 0 -- -- 53
2018-06-03 15:00:00 23 14 Sudoeste 36 Sur 0 -- -- 60
2018-06-03 14:00:00 22.2 10 Sur 28 Sur 0 -- -- 61
2018-06-03 13:00:00 20.4 6 Sudoeste 21 Sudoeste 0 -- -- 69
2018-06-03 12:00:00 18.8 4 Oeste 12 Sudoeste 0 -- -- 74
2018-06-03 11:00:00 16.8 4 Sur 13 Este 0 -- -- 84
2018-06-03 10:00:00 15.1 3 Oeste 6 Oeste 0 -- -- 89
2018-06-03 09:00:00 13.3 0 Calma 5 Oeste 0 -- -- 95
2018-06-03 08:00:00 11.7 0 Calma 3 Este 0 -- -- 96
2018-06-03 07:00:00 10.6 2 Nordeste 4 Este 0 -- -- 95
2018-06-03 06:00:00 10.7 0 Calma 8 Noroeste 0 -- -- 95
2018-06-03 05:00:00 11 3 Oeste 6 Oeste 0 -- -- 95
2018-06-03 04:00:00 11.1 0 Calma 4 Norte 0 -- -- 94
2018-06-03 03:00:00 11.6 0 Calma 8 Este 0 -- -- 93
2018-06-03 02:00:00 12.1 2 Sur 7 Noroeste 0 -- -- 92
2018-06-03 01:00:00 12.7 2 Nordeste 6 Norte 0 -- -- 92
2018-06-03 00:00:00 13.2 3 Este 8 Sudeste 0 -- -- 91
2018-06-02 23:00:00 13.5 5 Este 14 Nordeste 0 -- -- 90
2018-06-02 22:00:00 14 9 Nordeste 15 Nordeste 0.4 -- -- 89
2018-06-02 21:00:00 14.7 3 Nordeste 18 Sur 3.2 -- -- 87
2018-06-02 20:00:00 16.1 12 Sudeste 27 Sudeste 2.8 -- -- 76
2018-06-02 19:00:00 18.2 17 Sudoeste 51 Sudoeste 0 -- -- 60
2018-06-02 18:00:00 17.6 41 Sudoeste 68 Sudoeste 0 -- -- 62
2018-06-02 17:00:00 24.6 9 Este 18 Nordeste 0 -- -- 51
2018-06-02 16:00:00 23 2 Oeste 18 Este 0 -- -- 51
2018-06-02 15:00:00 22.8 5 Este 32 Este 0 -- -- 49
2018-06-02 14:00:00 21.3 6 Nordeste 22 Nordeste 0 -- -- 60
2018-06-02 13:00:00 21.7 8 Nordeste 19 Norte 0 -- -- 58
2018-06-02 12:00:00 20.2 8 Norte 27 Norte 0 -- -- 72
2018-06-02 11:00:00 18 12 Norte 26 Norte 0 -- -- 82
2018-06-02 10:00:00 15 12 Nordeste 23 Nordeste 0 -- -- 87
2018-06-02 09:00:00 14.5 8 Nordeste 21 Norte 0.2 -- -- 88
2018-06-02 08:00:00 14.2 8 Nordeste 17 Nordeste 0.4 -- -- 88
2018-06-02 07:00:00 14.3 7 Nordeste 15 Nordeste 0 -- -- 87
2018-06-02 06:00:00 13.9 5 Nordeste 15 Nordeste 0 -- -- 89
2018-06-02 05:00:00 14.2 6 Norte 18 Norte 0 -- -- 87
2018-06-02 04:00:00 15.2 4 Norte 9 Norte 0.6 -- -- 86
2018-06-02 03:00:00 15.7 3 Nordeste 15 Nordeste 0 -- -- 83
2018-06-02 02:00:00 15.9 11 Nordeste 23 Nordeste 0 -- -- 83
2018-06-02 01:00:00 16.3 8 Nordeste 21 Este 0 -- -- 83
2018-06-02 00:00:00 15.6 6 Nordeste 57 Este 5.2 -- -- 87
2018-06-01 23:00:00 20.5 15 Este 32 Este 0 -- -- 57
2018-06-01 22:00:00 21.5 6 Norte 12 Norte 0 -- -- 55
2018-06-01 21:00:00 24.1 4 Oeste 17 Sudoeste 0 -- -- 45
2018-06-01 20:00:00 25.3 14 Sudoeste 24 Sudoeste 0 -- -- 40
2018-06-01 19:00:00 26.1 14 Sudoeste 29 Oeste 0 -- -- 38
2018-06-01 18:00:00 25.3 13 Sudoeste 35 Oeste 0 -- -- 43
2018-06-01 17:00:00 25.6 18 Sudoeste 28 Sudoeste 0 -- -- 43
2018-06-01 16:00:00 24.5 4 Sudoeste 28 Sudoeste 0 -- -- 48
2018-06-01 15:00:00 23.9 12 Oeste 28 Sudoeste 0 -- -- 47
2018-06-01 14:00:00 23.4 9 Sur 16 Sudoeste 0 -- -- 52
2018-06-01 13:00:00 21.6 6 Oeste 13 Sur 0 -- -- 55
2018-06-01 12:00:00 20 6 Oeste 12 Sudoeste 0 -- -- 60
2018-06-01 11:00:00 18.4 7 Oeste 13 Oeste 0 -- -- 72
2018-06-01 10:00:00 16.2 5 Oeste 8 Oeste 0 -- -- 77
2018-06-01 09:00:00 15 2 Este 5 Este 0 -- -- 80
2018-06-01 08:00:00 12.8 0 Calma 3 Sur 0 -- -- 89
2018-06-01 07:00:00 12.1 0 Calma 5 Sudoeste 0 -- -- 88
2018-06-01 06:00:00 12.9 2 Sudoeste 4 Oeste 0 -- -- 88
2018-06-01 05:00:00 12.9 0 Calma 3 Nordeste 0 -- -- 89
2018-06-01 04:00:00 12.3 0 Calma 4 Oeste 0 -- -- 86
2018-06-01 03:00:00 13 2 Sudoeste 4 Sudoeste 0 -- -- 85
2018-06-01 02:00:00 14 0 Calma 4 Nordeste 0 -- -- 81
2018-06-01 01:00:00 15.1 0 Calma -- -- 0 -- -- 77
2018-06-01 00:00:00 16.3 0 Calma 6 Sudeste 0 -- -- 71
2018-05-31 23:00:00 17.6 0 Calma 7 Oeste 0 -- -- 66
2018-05-31 22:00:00 19.1 4 Oeste 12 Sudoeste 0 -- -- 62
2018-05-31 21:00:00 21.6 9 Sudoeste 19 Sudoeste 0 -- -- 53
2018-05-31 20:00:00 23.3 9 Sudoeste 24 Sudoeste 0 -- -- 46
2018-05-31 19:00:00 24.3 14 Oeste 22 Noroeste 0 -- -- 45
2018-05-31 18:00:00 23.4 9 Sur 17 Sur 0 -- -- 47
2018-05-31 17:00:00 22.6 10 Oeste 23 Sudoeste 0 -- -- 47
2018-05-31 16:00:00 22.5 13 Oeste 24 Sudoeste 0 -- -- 46
2018-05-31 15:00:00 22.9 13 Sudoeste 26 Sur 0 -- -- 46
2018-05-31 14:00:00 21.1 9 Sudoeste 17 Oeste 0 -- -- 54
2018-05-31 13:00:00 21.1 8 Sur 17 Sudoeste 0 -- -- 60
2018-05-31 12:00:00 19.4 8 Sudoeste 17 Oeste 0 -- -- 69
2018-05-31 11:00:00 17.4 6 Sur 14 Sudoeste 0 -- -- 78
2018-05-31 10:00:00 15.1 5 Sudoeste 12 Sudoeste 0 -- -- 87
2018-05-31 09:00:00 13.5 8 Sudoeste 12 Sudoeste 0 -- -- 90
2018-05-31 08:00:00 12.4 4 Sudoeste 6 Sudoeste 0 -- -- 92
2018-05-31 07:00:00 12.6 3 Sudoeste 5 Sudoeste 0 -- -- 90
2018-05-31 06:00:00 13.2 0 Calma 8 Sur 0 -- -- 89
2018-05-31 05:00:00 14.1 5 Sur 12 Sudoeste 0 -- -- 87
2018-05-31 04:00:00 14.6 5 Sur 10 Sudoeste 0 -- -- 86
2018-05-31 03:00:00 15.1 4 Sur 14 Sudoeste 0 -- -- 84
2018-05-31 02:00:00 15.3 4 Oeste 15 Sudoeste 0 -- -- 84
2018-05-31 01:00:00 15.5 8 Sudoeste 16 Sudoeste 0 -- -- 82
2018-05-31 00:00:00 15.8 12 Sudoeste 27 Sudoeste 0.2 -- -- 79
2018-05-30 23:00:00 16.9 8 Sudoeste 17 Sudoeste 0 -- -- 73
2018-05-30 22:00:00 17.7 9 Oeste 22 Oeste 0 -- -- 67
2018-05-30 21:00:00 19.1 14 Oeste 27 Oeste 0 -- -- 61
2018-05-30 20:00:00 19.4 13 Oeste 20 Oeste 0 -- -- 61
2018-05-30 19:00:00 19.9 3 Este 11 Nordeste 0 -- -- 63
2018-05-30 18:00:00 17.8 8 Nordeste 17 Noroeste 0 -- -- 78
2018-05-30 17:00:00 18.9 13 Sudoeste 24 Oeste 0.2 -- -- 63
2018-05-30 16:00:00 18.3 4 Oeste 15 Sudoeste 0 -- -- 68
2018-05-30 15:00:00 17.1 7 Sudoeste 18 Oeste 0.2 -- -- 76
2018-05-30 14:00:00 16.6 7 Sur 28 Sur 0 -- -- 78
2018-05-30 13:00:00 16.9 11 Sur 21 Sudoeste 0 -- -- 82
2018-05-30 12:00:00 15.4 10 Sudoeste 17 Sur 0 -- -- 83
2018-05-30 11:00:00 14.2 6 Sur 9 Sur 0 -- -- 89
2018-05-30 10:00:00 13.5 5 Sur 12 Sur 0 -- -- 91
2018-05-30 09:00:00 13 5 Sur 12 Sudoeste 0 -- -- 93
2018-05-30 08:00:00 12.6 7 Sudoeste 14 Sudoeste 0 -- -- 94
2018-05-30 07:00:00 12 4 Sudoeste 10 Sudoeste 0 -- -- 93
2018-05-30 06:00:00 12.4 6 Sur 9 Sur 0 -- -- 93
2018-05-30 05:00:00 12.7 2 Sudoeste 7 Sudoeste 0 -- -- 92
2018-05-30 04:00:00 12.9 4 Sudoeste 7 Sur 0 -- -- 92
2018-05-30 03:00:00 13.3 4 Sur 5 Sur 0 -- -- 93
2018-05-30 02:00:00 13.5 3 Sur 8 Sudoeste 0 -- -- 93
2018-05-30 01:00:00 13.7 0 Calma 2 Sudeste 0 -- -- 93
2018-05-30 00:00:00 13.7 0 Calma 5 Sudeste 0 -- -- 92
2018-05-29 23:00:00 13.9 0 Calma 4 Sudoeste 0 -- -- 89
2018-05-29 22:00:00 15 3 Sur 5 Sur 0 -- -- 85
2018-05-29 21:00:00 16.5 3 Sur 6 Sur 0 -- -- 81
2018-05-29 20:00:00 16.4 3 Sur 8 Este 0 -- -- 82
2018-05-29 19:00:00 15.3 2 Sudoeste 8 Sudoeste 0.2 -- -- 87
2018-05-29 18:00:00 14.8 0 Calma 12 Este 1 -- -- 88
2018-05-29 17:00:00 14.5 7 Este 30 Sudeste 2 -- -- 88
2018-05-29 16:00:00 16.4 9 Sudoeste 43 Oeste 0.2 -- -- 69
2018-05-29 15:00:00 17.8 28 Oeste 48 Oeste 0.6 -- -- 68
2018-05-29 14:00:00 21.8 7 Este 12 Sudeste 0 -- -- 58
2018-05-29 13:00:00 19.6 3 Nordeste 12 Este 0 -- -- 66
2018-05-29 12:00:00 19.7 3 Norte 10 Este 0 -- -- 68
2018-05-29 11:00:00 18.1 4 Sur 11 Sudeste 0 -- -- 76
2018-05-29 10:00:00 16.8 3 Sudeste 8 Sudeste 0 -- -- 87
2018-05-29 09:00:00 15.7 3 Nordeste 8 Nordeste 0 -- -- 93
2018-05-29 08:00:00 14.8 5 Nordeste 9 Este 0 -- -- 94
2018-05-29 07:00:00 14.5 4 Nordeste 8 Este 0 -- -- 94
2018-05-29 06:00:00 14.4 6 Este 9 Este 0 -- -- 93
2018-05-29 05:00:00 14.5 6 Este 9 Nordeste 0.2 -- -- 93
2018-05-29 04:00:00 14.8 3 Nordeste 6 Este 0 -- -- 92
2018-05-29 03:00:00 14.6 0 Calma 5 Sudoeste 0 -- -- 93
2018-05-29 02:00:00 14.6 3 Nordeste 5 Nordeste 0 -- -- 92
2018-05-29 01:00:00 14.5 0 Calma 5 Nordeste 0 -- -- 90
2018-05-29 00:00:00 15.3 2 Nordeste 9 Nordeste 0 -- -- 88
2018-05-28 23:00:00 16.1 5 Norte 12 Norte 0 -- -- 87
2018-05-28 22:00:00 16.1 5 Nordeste 12 Nordeste 0 -- -- 85
2018-05-28 21:00:00 16.3 6 Norte 21 Nordeste 0 -- -- 79
2018-05-28 20:00:00 17.8 7 Nordeste 22 Nordeste 0 -- -- 75
2018-05-28 19:00:00 20.1 15 Sudoeste 28 Oeste 0 -- -- 64
2018-05-28 18:00:00 20.9 11 Sur 31 Sur 0 -- -- 65
2018-05-28 17:00:00 21.7 13 Sudoeste 22 Sur 0 -- -- 63
2018-05-28 16:00:00 20.7 12 Sudoeste 21 Sudoeste 0 -- -- 68
2018-05-28 15:00:00 21.1 6 Sudoeste 12 Noroeste 0 -- -- 65
2018-05-28 14:00:00 21.6 5 Noroeste 16 Nordeste 0.2 -- -- 64
2018-05-28 13:00:00 19.8 6 Norte 13 Nordeste 0 -- -- 72
2018-05-28 12:00:00 18.1 7 Norte 12 Noroeste 0 -- -- 83
2018-05-28 11:00:00 15.8 2 Este 6 Nordeste 0.4 -- -- 92
2018-05-28 10:00:00 15.2 4 Nordeste 6 Nordeste 0.4 -- -- 92
2018-05-28 09:00:00 14.9 0 Calma 5 Este 0.8 -- -- 92
2018-05-28 08:00:00 14.8 3 Nordeste 5 Este 0.8 -- -- 92
2018-05-28 07:00:00 14.7 0 Calma 4 Norte 2.6 -- -- 90
2018-05-28 06:00:00 15 2 Nordeste 6 Este 0.4 -- -- 87
2018-05-28 05:00:00 14.8 0 Calma 12 Nordeste 0 -- -- 85
2018-05-28 04:00:00 14.7 6 Nordeste 11 Este 0 -- -- 86
2018-05-28 03:00:00 15.1 5 Norte 18 Norte 0 -- -- 85
2018-05-28 02:00:00 16 8 Norte 13 Norte 0 -- -- 79
2018-05-28 01:00:00 16.1 4 Sur 9 Sudeste 0 -- -- 79
2018-05-28 00:00:00 16 7 Sudeste 24 Sudeste 0 -- -- 76
2018-05-27 23:00:00 16.6 17 Sudeste 37 Sudeste 0 -- -- 74
2018-05-27 22:00:00 17.4 24 Sudeste 38 Sudeste 0 -- -- 70
2018-05-27 21:00:00 20.5 5 Nordeste 36 Sur 0 -- -- 56
2018-05-27 20:00:00 20.5 22 Sur 41 Sur 0 -- -- 58
2018-05-27 19:00:00 24.3 12 Oeste 21 Sudoeste 0 -- -- 42
2018-05-27 18:00:00 25.3 11 Sudoeste 19 Sudoeste 0 -- -- 39
2018-05-27 17:00:00 26 9 Oeste 22 Oeste 0 -- -- 36
2018-05-27 16:00:00 25.5 10 Oeste 23 Noroeste 0 -- -- 39
2018-05-27 15:00:00 24.8 10 Oeste 25 Oeste 0 -- -- 46
2018-05-27 14:00:00 24.2 10 Sudoeste 16 Sudoeste 0 -- -- 48
2018-05-27 13:00:00 22.8 6 Sudoeste 10 Sudoeste 0 -- -- 55
2018-05-27 12:00:00 20.4 3 Oeste 10 Sur 0 -- -- 66
2018-05-27 11:00:00 18.5 3 Sudoeste 8 Este 0 -- -- 74
2018-05-27 10:00:00 17 6 Este 10 Este 0 -- -- 76
2018-05-27 09:00:00 13.8 0 Calma 9 Este 0 -- -- 86
2018-05-27 08:00:00 12.5 4 Nordeste 8 Este 0 -- -- 89
2018-05-27 07:00:00 11.3 2 Este 4 Este 0 -- -- 90
2018-05-27 06:00:00 11.6 0 Calma 5 Este 0 -- -- 88
2018-05-27 05:00:00 12.2 0 Calma 5 Este 0 -- -- 87
2018-05-27 04:00:00 13 0 Calma 12 Este 0 -- -- 85
2018-05-27 03:00:00 13.5 4 Nordeste 9 Este 0 -- -- 83
2018-05-27 02:00:00 14.1 3 Nordeste 9 Este 0 -- -- 81
2018-05-27 01:00:00 14.6 4 Norte 8 Nordeste 0 -- -- 80
2018-05-27 00:00:00 15.5 4 Nordeste 8 Nordeste 0 -- -- 75
2018-05-26 23:00:00 17.4 2 Nordeste 4 Este 0 -- -- 71
2018-05-26 22:00:00 19.4 0 Calma 6 Oeste 0 -- -- 64
2018-05-26 21:00:00 21.9 5 Oeste 13 Oeste 0 -- -- 50
2018-05-26 20:00:00 22.9 9 Sudoeste 14 Sudoeste 0 -- -- 46
2018-05-26 19:00:00 22.5 9 Oeste 17 Sur 0 -- -- 50
2018-05-26 18:00:00 23 7 Oeste 17 Sudoeste 0 -- -- 46
2018-05-26 17:00:00 22.6 8 Oeste 19 Oeste 0 -- -- 47
2018-05-26 16:00:00 21.5 9 Sudoeste 20 Oeste 0 -- -- 54
2018-05-26 15:00:00 21.5 12 Oeste 22 Oeste 0 -- -- 54
2018-05-26 14:00:00 21.3 10 Sudoeste 20 Sudoeste 0 -- -- 59
2018-05-26 13:00:00 19.8 10 Sudoeste 16 Sur 0 -- -- 60
2018-05-26 12:00:00 18.2 8 Oeste 14 Oeste 0 -- -- 70
2018-05-26 11:00:00 16.8 7 Oeste 12 Sudoeste 0 -- -- 72
2018-05-26 10:00:00 16.4 6 Sudoeste 10 Oeste 0 -- -- 79
2018-05-26 09:00:00 15.8 5 Sudeste 9 Sudeste 0 -- -- 82
2018-05-26 08:00:00 13.6 0 Calma 5 Sur 0 -- -- 93
2018-05-26 07:00:00 13.2 0 Calma 4 Sur 0 -- -- 93
2018-05-26 06:00:00 13.1 3 Sudeste 4 Sur 0 -- -- 93
2018-05-26 05:00:00 13 0 Calma 4 Oeste 0 -- -- 93
2018-05-26 04:00:00 12.9 2 Oeste 5 Sudoeste 0 -- -- 92
2018-05-26 03:00:00 12.8 0 Calma 9 Sudoeste 0 -- -- 92
2018-05-26 02:00:00 13 0 Calma 8 Sudoeste 0 -- -- 90
2018-05-26 01:00:00 13.4 0 Calma 6 Sudoeste 0 -- -- 90
2018-05-26 00:00:00 13.8 3 Sudeste 7 Sur 0 -- -- 88
2018-05-25 23:00:00 14.4 7 Sudoeste 9 Sudoeste 0 -- -- 86
2018-05-25 22:00:00 15.5 0 Calma 9 Noroeste 0 -- -- 83
2018-05-25 21:00:00 16.4 6 Noroeste 28 Oeste 0.2 -- -- 77
2018-05-25 20:00:00 19.7 6 Sudoeste 22 Oeste 0 -- -- 65
2018-05-25 19:00:00 21.2 4 Sudoeste 17 Sudeste 0 -- -- 56
2018-05-25 18:00:00 20.9 6 Sur 16 Sudeste 0 -- -- 60
2018-05-25 17:00:00 21 5 Sudeste 17 Este 0 -- -- 58
2018-05-25 16:00:00 19.6 3 Norte 10 Sudoeste 0 -- -- 71
2018-05-25 15:00:00 18 5 Sudoeste 10 Sur 0 -- -- 73
2018-05-25 14:00:00 16.3 2 Noroeste 8 Sudoeste 0.2 -- -- 84
2018-05-25 13:00:00 14.7 0 Calma 8 Nordeste 0 -- -- 87
2018-05-25 12:00:00 14.4 5 Este 11 Nordeste 0.4 -- -- 90
2018-05-25 11:00:00 14 5 Nordeste 12 Nordeste 0 -- -- 90
2018-05-25 10:00:00 14.1 6 Norte 9 Norte 0 -- -- 93
2018-05-25 09:00:00 13.8 4 Noroeste 14 Sur 4.2 -- -- 93
2018-05-25 08:00:00 14 4 Este 14 Oeste 1.2 -- -- 93
2018-05-25 07:00:00 14.1 15 Oeste 32 Oeste 3.2 -- -- 91
2018-05-25 06:00:00 14.3 0 Calma 12 Este 0 -- -- 89
2018-05-25 05:00:00 14.3 6 Este 17 Este 0 -- -- 91
2018-05-25 04:00:00 14.6 8 Nordeste 39 Sudoeste 4.2 -- -- 91
2018-05-25 03:00:00 16.4 18 Sudoeste 36 Sudoeste 0 -- -- 81
2018-05-25 02:00:00 17 7 Sudoeste 29 Sudoeste 0 -- -- 78
2018-05-25 01:00:00 17.9 19 Sudoeste 27 Sudoeste 0 -- -- 79
2018-05-25 00:00:00 19.6 10 Sur 35 Sudeste 0 -- -- 61
2018-05-24 23:00:00 22 20 Sur 40 Sudeste 0 -- -- 47
2018-05-24 22:00:00 22.9 20 Sudeste 46 Sudeste 0 -- -- 47
2018-05-24 21:00:00 24.4 22 Sudeste 41 Sudeste 0 -- -- 46
2018-05-24 20:00:00 25.5 23 Sudeste 53 Sudeste 0 -- -- 43
2018-05-24 19:00:00 26.5 26 Sudeste 45 Sudeste 0 -- -- 40
2018-05-24 18:00:00 28 26 Sudeste 41 Sudeste 0 -- -- 33
2018-05-24 17:00:00 28.4 18 Sudeste 34 Sudeste 0 -- -- 33
2018-05-24 16:00:00 26.9 13 Nordeste 28 Este 0 -- -- 37
2018-05-24 15:00:00 24.9 13 Nordeste 31 Este 0 -- -- 39
2018-05-24 14:00:00 24.6 15 Norte 23 Nordeste 0 -- -- 43
2018-05-24 13:00:00 22.3 6 Oeste 9 Oeste 0 -- -- 47
2018-05-24 12:00:00 22.3 5 Sudeste 23 Este 0 -- -- 46
2018-05-24 11:00:00 21.5 6 Nordeste 13 Nordeste 0 -- -- 55
2018-05-24 10:00:00 19.4 6 Norte 11 Norte 0 -- -- 70
2018-05-24 09:00:00 18.7 6 Nordeste 17 Norte 0 -- -- 68
2018-05-24 08:00:00 15.5 4 Norte 12 Nordeste 0 -- -- 81
2018-05-24 07:00:00 13.9 7 Nordeste 18 Este 0 -- -- 88
2018-05-24 06:00:00 14.5 5 Nordeste 11 Nordeste 0 -- -- 86
2018-05-24 05:00:00 14.7 5 Sudeste 6 Sudeste 0 -- -- 85
2018-05-24 04:00:00 15.5 0 Calma 10 Norte 0 -- -- 82
2018-05-24 03:00:00 15.5 6 Nordeste 9 Norte 0 -- -- 84
2018-05-24 02:00:00 15.6 5 Este 10 Este 0 -- -- 84
2018-05-24 01:00:00 15.7 4 Nordeste 9 Este 0 -- -- 83
2018-05-24 00:00:00 16.4 3 Nordeste 6 Nordeste 0 -- -- 82
2018-05-23 23:00:00 17.3 4 Noroeste 8 Este 0 -- -- 81
2018-05-23 22:00:00 18.9 5 Nordeste 9 Este 0 -- -- 70
2018-05-23 21:00:00 19.4 4 Sur 48 Oeste 0.4 -- -- 74
2018-05-23 20:00:00 24.1 17 Oeste 43 Oeste 0 -- -- 46
2018-05-23 19:00:00 27.5 10 Sudoeste 19 Sudoeste 0 -- -- 38
2018-05-23 18:00:00 27.4 4 Sur 16 Oeste 0 -- -- 37
2018-05-23 17:00:00 27.1 9 Sur 17 Sur 0 -- -- 40
2018-05-23 16:00:00 26 5 Sudoeste 18 Oeste 0 -- -- 42
2018-05-23 15:00:00 26.5 8 Sudoeste 17 Sudoeste 0 -- -- 43
2018-05-23 14:00:00 25.9 8 Sudeste 14 Sudeste 0 -- -- 45
2018-05-23 13:00:00 24.9 3 Sudoeste 12 Sur 0 -- -- 49
2018-05-23 12:00:00 23.5 6 Sur 16 Sur 0 -- -- 55
2018-05-23 11:00:00 21.7 4 Nordeste 11 Nordeste 0 -- -- 60
2018-05-23 10:00:00 19.5 3 Sudeste 10 Este 0 -- -- 68
2018-05-23 09:00:00 16.9 3 Norte 7 Este 0 -- -- 81
2018-05-23 08:00:00 14.4 4 Nordeste 8 Este 0 -- -- 88
2018-05-23 07:00:00 13.9 2 Este 7 Nordeste 0 -- -- 88
2018-05-23 06:00:00 14.3 0 Calma 10 Este 0 -- -- 87
2018-05-23 05:00:00 14.9 4 Nordeste 7 Nordeste 0 -- -- 87
2018-05-23 04:00:00 15.4 0 Calma 8 Este 0 -- -- 85
2018-05-23 03:00:00 16.5 3 Nordeste 5 Nordeste 0 -- -- 84
2018-05-23 02:00:00 16.8 2 Norte 5 Norte 0 -- -- 83
2018-05-23 01:00:00 17 3 Nordeste 8 Nordeste 0 -- -- 79
2018-05-23 00:00:00 17.7 5 Nordeste 10 Nordeste 0 -- -- 77
2018-05-22 23:00:00 19.2 3 Nordeste 4 Este 0 -- -- 72
2018-05-22 22:00:00 20.1 0 Calma 5 Norte 0 -- -- 73
2018-05-22 21:00:00 20.9 2 Norte 8 Nordeste 0 -- -- 64
2018-05-22 20:00:00 21.3 4 Nordeste 13 Nordeste 0 -- -- 59
2018-05-22 19:00:00 21.8 8 Nordeste 19 Nordeste 0 -- -- 58
2018-05-22 18:00:00 22.1 8 Norte 19 Norte 0 -- -- 54
2018-05-22 17:00:00 23.3 8 Norte 34 Noroeste 0 -- -- 55
2018-05-22 16:00:00 23.5 2 Norte 11 Sur 0 -- -- 47
2018-05-22 15:00:00 24 3 Oeste 10 Este 0 -- -- 51
2018-05-22 14:00:00 22.7 4 Sur 13 Sur 0 -- -- 55
2018-05-22 13:00:00 20.8 6 Oeste 15 Oeste 0 -- -- 67
2018-05-22 12:00:00 19.6 4 Sudeste 11 Sudoeste 0 -- -- 70
2018-05-22 11:00:00 18 4 Sudoeste 10 Sudoeste 0 -- -- 73
2018-05-22 10:00:00 16.7 3 Nordeste 6 Este 0 -- -- 81
2018-05-22 09:00:00 14.7 3 Noroeste 6 Norte 0 -- -- 89
2018-05-22 08:00:00 13 3 Sudoeste 5 Sudoeste 0 -- -- 94
2018-05-22 07:00:00 11.9 0 Calma 3 Sudeste 0.2 -- -- 92
2018-05-22 06:00:00 12.8 0 Calma 5 Nordeste 0 -- -- 92
2018-05-22 05:00:00 13.4 2 Nordeste 6 Nordeste 0 -- -- 92
2018-05-22 04:00:00 13.9 4 Este 10 Nordeste 0 -- -- 91
2018-05-22 03:00:00 14.2 6 Nordeste 14 Sur 2.6 -- -- 91
2018-05-22 02:00:00 14.9 4 Sudoeste 8 Sudoeste 1.6 -- -- 87
2018-05-22 01:00:00 15 5 Nordeste 18 Sudeste 0 -- -- 83
2018-05-22 00:00:00 14.7 12 Sudeste 23 Sudeste 0 -- -- 85